sensor_id;sensor_type;location;lat;lon;timestamp;pressure;altitude;pressure_sealevel;temperature;humidity
13348;BME280;6743;49.934;9.138;2023-02-25T00:02:04;99320.94;;;4.84;100.00
13348;BME280;6743;49.934;9.138;2023-02-25T00:04:31;99311.41;;;4.83;100.00
13348;BME280;6743;49.934;9.138;2023-02-25T00:06:57;99313.22;;;4.82;100.00
13348;BME280;6743;49.934;9.138;2023-02-25T00:09:23;99296.03;;;4.70;100.00
13348;BME280;6743;49.934;9.138;2023-02-25T00:11:49;99304.78;;;4.79;100.00
13348;BME280;6743;49.934;9.138;2023-02-25T00:14:15;99312.31;;;4.73;100.00
13348;BME280;6743;49.934;9.138;2023-02-25T00:16:41;99314.44;;;4.70;100.00
13348;BME280;6743;49.934;9.138;2023-02-25T00:19:07;99302.91;;;4.71;100.00
13348;BME280;6743;49.934;9.138;2023-02-25T00:21:35;99306.53;;;4.70;100.00
13348;BME280;6743;49.934;9.138;2023-02-25T00:24:01;99313.41;;;4.71;100.00
13348;BME280;6743;49.934;9.138;2023-02-25T00:26:28;99309.47;;;4.67;100.00
13348;BME280;6743;49.934;9.138;2023-02-25T00:28:55;99314.72;;;4.67;100.00
13348;BME280;6743;49.934;9.138;2023-02-25T00:31:22;99315.00;;;4.64;100.00
13348;BME280;6743;49.934;9.138;2023-02-25T00:33:50;99321.06;;;4.64;100.00
13348;BME280;6743;49.934;9.138;2023-02-25T00:36:20;99326.19;;;4.66;100.00
13348;BME280;6743;49.934;9.138;2023-02-25T00:38:47;99310.34;;;4.58;100.00
13348;BME280;6743;49.934;9.138;2023-02-25T00:41:15;99323.06;;;4.62;100.00
13348;BME280;6743;49.934;9.138;2023-02-25T00:43:43;99325.13;;;4.59;100.00
13348;BME280;6743;49.934;9.138;2023-02-25T00:46:10;99320.84;;;4.58;100.00
13348;BME280;6743;49.934;9.138;2023-02-25T00:48:37;99322.66;;;4.57;100.00
13348;BME280;6743;49.934;9.138;2023-02-25T00:51:05;99325.13;;;4.59;100.00
13348;BME280;6743;49.934;9.138;2023-02-25T00:53:32;99330.09;;;4.62;100.00
13348;BME280;6743;49.934;9.138;2023-02-25T00:55:59;99339.31;;;4.66;100.00
13348;BME280;6743;49.934;9.138;2023-02-25T00:58:25;99343.59;;;4.67;100.00
13348;BME280;6743;49.934;9.138;2023-02-25T01:00:51;99334.16;;;4.56;100.00
13348;BME280;6743;49.934;9.138;2023-02-25T01:03:19;99348.88;;;4.67;100.00
13348;BME280;6743;49.934;9.138;2023-02-25T01:05:45;99345.31;;;4.58;100.00
13348;BME280;6743;49.934;9.138;2023-02-25T01:08:15;99334.81;;;4.58;100.00
13348;BME280;6743;49.934;9.138;2023-02-25T01:10:42;99355.78;;;4.68;100.00
13348;BME280;6743;49.934;9.138;2023-02-25T01:13:10;99344.94;;;4.71;100.00
13348;BME280;6743;49.934;9.138;2023-02-25T01:15:36;99356.28;;;4.71;100.00
13348;BME280;6743;49.934;9.138;2023-02-25T01:18:02;99343.91;;;4.64;100.00
13348;BME280;6743;49.934;9.138;2023-02-25T01:20:29;99350.19;;;4.71;100.00
13348;BME280;6743;49.934;9.138;2023-02-25T01:22:55;99343.91;;;4.64;100.00
13348;BME280;6743;49.934;9.138;2023-02-25T01:25:21;99336.19;;;4.62;100.00
13348;BME280;6743;49.934;9.138;2023-02-25T01:27:47;99342.91;;;4.65;100.00
13348;BME280;6743;49.934;9.138;2023-02-25T01:30:13;99332.41;;;4.65;100.00
13348;BME280;6743;49.934;9.138;2023-02-25T01:32:39;99330.94;;;4.62;100.00
13348;BME280;6743;49.934;9.138;2023-02-25T01:35:05;99327.75;;;4.59;100.00
13348;BME280;6743;49.934;9.138;2023-02-25T01:37:32;99322.97;;;4.54;100.00
13348;BME280;6743;49.934;9.138;2023-02-25T01:39:58;99327.25;;;4.55;100.00
13348;BME280;6743;49.934;9.138;2023-02-25T01:42:23;99320.63;;;4.51;100.00
13348;BME280;6743;49.934;9.138;2023-02-25T01:45:28;99319.97;;;4.49;100.00
13348;BME280;6743;49.934;9.138;2023-02-25T01:47:59;99330.63;;;4.48;100.00
13348;BME280;6743;49.934;9.138;2023-02-25T01:50:32;99334.34;;;4.45;100.00
13348;BME280;6743;49.934;9.138;2023-02-25T01:53:01;99329.41;;;4.42;100.00
13348;BME280;6743;49.934;9.138;2023-02-25T01:55:28;99332.03;;;4.42;100.00
13348;BME280;6743;49.934;9.138;2023-02-25T01:57:56;99337.13;;;4.44;100.00
13348;BME280;6743;49.934;9.138;2023-02-25T02:00:28;99336.47;;;4.42;100.00
13348;BME280;6743;49.934;9.138;2023-02-25T02:02:56;99335.63;;;4.41;100.00
13348;BME280;6743;49.934;9.138;2023-02-25T02:05:25;99337.44;;;4.41;100.00
13348;BME280;6743;49.934;9.138;2023-02-25T02:07:55;99337.56;;;4.39;100.00
13348;BME280;6743;49.934;9.138;2023-02-25T02:10:21;99325.03;;;4.33;100.00
13348;BME280;6743;49.934;9.138;2023-02-25T02:12:47;99338.69;;;4.36;100.00
13348;BME280;6743;49.934;9.138;2023-02-25T02:15:14;99334.16;;;4.29;100.00
13348;BME280;6743;49.934;9.138;2023-02-25T02:17:42;99342.59;;;4.32;100.00
13348;BME280;6743;49.934;9.138;2023-02-25T02:20:15;99346.31;;;4.30;100.00
13348;BME280;6743;49.934;9.138;2023-02-25T02:23:03;99343.88;;;4.28;100.00
13348;BME280;6743;49.934;9.138;2023-02-25T02:25:47;99342.34;;;4.26;100.00
13348;BME280;6743;49.934;9.138;2023-02-25T02:28:35;99335.72;;;4.22;100.00
13348;BME280;6743;49.934;9.138;2023-02-25T02:34:03;99351.75;;;4.28;100.00
13348;BME280;6743;49.934;9.138;2023-02-25T02:36:39;99346.63;;;4.27;100.00
13348;BME280;6743;49.934;9.138;2023-02-25T02:39:13;99348.44;;;4.26;100.00
13348;BME280;6743;49.934;9.138;2023-02-25T02:41:46;99353.69;;;4.26;100.00
13348;BME280;6743;49.934;9.138;2023-02-25T02:44:16;99356.31;;;4.26;100.00
13348;BME280;6743;49.934;9.138;2023-02-25T02:46:50;99361.41;;;4.28;100.00
13348;BME280;6743;49.934;9.138;2023-02-25T02:49:20;99358.09;;;4.26;100.00
13348;BME280;6743;49.934;9.138;2023-02-25T02:51:52;99358.78;;;4.28;100.00
13348;BME280;6743;49.934;9.138;2023-02-25T02:54:23;99360.59;;;4.27;100.00
13348;BME280;6743;49.934;9.138;2023-02-25T02:56:53;99359.91;;;4.25;100.00
13348;BME280;6743;49.934;9.138;2023-02-25T02:59:24;99357.28;;;4.25;100.00
13348;BME280;6743;49.934;9.138;2023-02-25T03:01:57;99359.06;;;4.25;100.00
13348;BME280;6743;49.934;9.138;2023-02-25T03:04:29;99365.28;;;4.24;100.00
13348;BME280;6743;49.934;9.138;2023-02-25T03:07:00;99363.50;;;4.24;100.00
13348;BME280;6743;49.934;9.138;2023-02-25T03:09:29;99355.34;;;4.27;100.00
13348;BME280;6743;49.934;9.138;2023-02-25T03:11:57;99366.94;;;4.25;100.00
13348;BME280;6743;49.934;9.138;2023-02-25T03:14:23;99360.19;;;4.22;100.00
13348;BME280;6743;49.934;9.138;2023-02-25T03:16:52;99361.69;;;4.25;100.00
13348;BME280;6743;49.934;9.138;2023-02-25T03:19:22;99362.81;;;4.22;100.00
13348;BME280;6743;49.934;9.138;2023-02-25T03:21:53;99374.13;;;4.23;100.00
13348;BME280;6743;49.934;9.138;2023-02-25T03:24:22;99384.50;;;4.24;100.00
13348;BME280;6743;49.934;9.138;2023-02-25T03:26:52;99380.22;;;4.23;100.00
13348;BME280;6743;49.934;9.138;2023-02-25T03:29:21;99367.78;;;4.25;100.00
13348;BME280;6743;49.934;9.138;2023-02-25T03:31:52;99360.03;;;4.24;100.00
13348;BME280;6743;49.934;9.138;2023-02-25T03:34:25;99369.56;;;4.25;100.00
13348;BME280;6743;49.934;9.138;2023-02-25T03:36:57;99360.94;;;4.15;100.00
13348;BME280;6743;49.934;9.138;2023-02-25T03:39:27;99364.59;;;4.22;100.00
13348;BME280;6743;49.934;9.138;2023-02-25T03:41:56;99365.97;;;4.26;100.00
13348;BME280;6743;49.934;9.138;2023-02-25T03:44:34;99363.81;;;4.21;100.00
13348;BME280;6743;49.934;9.138;2023-02-25T03:47:08;99370.41;;;4.25;100.00
13348;BME280;6743;49.934;9.138;2023-02-25T03:49:41;99371.22;;;4.26;100.00
13348;BME280;6743;49.934;9.138;2023-02-25T03:52:12;99358.56;;;4.21;100.00
13348;BME280;6743;49.934;9.138;2023-02-25T03:54:40;99369.44;;;4.26;100.00
13348;BME280;6743;49.934;9.138;2023-02-25T03:57:06;99369.31;;;4.28;100.00
13348;BME280;6743;49.934;9.138;2023-02-25T03:59:32;99377.31;;;4.26;100.00
13348;BME280;6743;49.934;9.138;2023-02-25T04:01:59;99376.94;;;4.21;100.00
13348;BME280;6743;49.934;9.138;2023-02-25T04:04:26;99377.72;;;4.22;100.00
13348;BME280;6743;49.934;9.138;2023-02-25T04:06:53;99361.66;;;4.07;100.00
13348;BME280;6743;49.934;9.138;2023-02-25T04:09:19;99385.22;;;4.17;100.00
13348;BME280;6743;49.934;9.138;2023-02-25T04:11:45;99381.09;;;4.14;100.00
13348;BME280;6743;49.934;9.138;2023-02-25T04:14:13;99380.94;;;4.16;100.00
13348;BME280;6743;49.934;9.138;2023-02-25T04:16:39;99381.38;;;4.11;100.00
13348;BME280;6743;49.934;9.138;2023-02-25T04:19:05;99381.38;;;4.11;100.00
13348;BME280;6743;49.934;9.138;2023-02-25T04:21:34;99383.19;;;4.11;100.00
13348;BME280;6743;49.934;9.138;2023-02-25T04:24:02;99380.56;;;4.11;100.00
13348;BME280;6743;49.934;9.138;2023-02-25T04:26:29;99375.75;;;4.06;100.00
13348;BME280;6743;49.934;9.138;2023-02-25T04:28:56;99380.41;;;4.12;100.00
13348;BME280;6743;49.934;9.138;2023-02-25T04:31:22;99383.87;;;4.13;100.00
13348;BME280;6743;49.934;9.138;2023-02-25T04:33:48;99385.53;;;4.14;100.00
13348;BME280;6743;49.934;9.138;2023-02-25T04:36:22;99385.53;;;4.14;100.00
13348;BME280;6743;49.934;9.138;2023-02-25T04:38:48;99377.66;;;4.14;100.00
13348;BME280;6743;49.934;9.138;2023-02-25T04:41:15;99382.06;;;4.13;100.00
13348;BME280;6743;49.934;9.138;2023-02-25T04:43:40;99388.28;;;4.12;100.00
13348;BME280;6743;49.934;9.138;2023-02-25T04:46:09;99393.53;;;4.12;100.00
13348;BME280;6743;49.934;9.138;2023-02-25T04:48:35;99368.59;;;3.99;100.00
13348;BME280;6743;49.934;9.138;2023-02-25T04:51:02;99390.09;;;4.12;100.00
13348;BME280;6743;49.934;9.138;2023-02-25T04:53:28;99385.81;;;4.11;100.00
13348;BME280;6743;49.934;9.138;2023-02-25T04:55:54;99393.81;;;4.09;100.00
13348;BME280;6743;49.934;9.138;2023-02-25T04:58:20;99401.69;;;4.09;100.00
13348;BME280;6743;49.934;9.138;2023-02-25T05:00:46;99389.53;;;4.08;100.00
13348;BME280;6743;49.934;9.138;2023-02-25T05:03:13;99401.56;;;4.11;100.00
13348;BME280;6743;49.934;9.138;2023-02-25T05:05:40;99403.22;;;4.12;100.00
13348;BME280;6743;49.934;9.138;2023-02-25T05:08:06;99408.06;;;4.07;100.00
13348;BME280;6743;49.934;9.138;2023-02-25T05:10:32;99413.31;;;4.07;100.00
13348;BME280;6743;49.934;9.138;2023-02-25T05:12:58;99415.94;;;4.07;100.00
13348;BME280;6743;49.934;9.138;2023-02-25T05:15:25;99399.41;;;3.96;100.00
13348;BME280;6743;49.934;9.138;2023-02-25T05:17:51;99410.69;;;4.07;100.00
13348;BME280;6743;49.934;9.138;2023-02-25T05:20:17;99405.03;;;4.02;100.00
13348;BME280;6743;49.934;9.138;2023-02-25T05:22:43;99408.72;;;4.09;100.00
13348;BME280;6743;49.934;9.138;2023-02-25T05:25:10;99423.50;;;4.10;100.00
13348;BME280;6743;49.934;9.138;2023-02-25T05:27:36;99417.31;;;4.11;100.00
13348;BME280;6743;49.934;9.138;2023-02-25T05:30:02;99420.22;;;4.08;100.00
13348;BME280;6743;49.934;9.138;2023-02-25T05:32:29;99421.03;;;4.08;100.00
13348;BME280;6743;49.934;9.138;2023-02-25T05:34:56;99419.94;;;4.11;100.00
13348;BME280;6743;49.934;9.138;2023-02-25T05:37:22;99419.94;;;4.11;100.00
13348;BME280;6743;49.934;9.138;2023-02-25T05:39:48;99424.34;;;4.10;100.00
13348;BME280;6743;49.934;9.138;2023-02-25T05:42:15;99429.31;;;4.13;100.00
13348;BME280;6743;49.934;9.138;2023-02-25T05:44:41;99416.47;;;4.10;100.00
13348;BME280;6743;49.934;9.138;2023-02-25T05:47:07;99421.84;;;4.09;100.00
13348;BME280;6743;49.934;9.138;2023-02-25T05:49:33;99431.25;;;4.11;100.00
13348;BME280;6743;49.934;9.138;2023-02-25T05:51:59;99431.13;;;4.13;100.00
13348;BME280;6743;49.934;9.138;2023-02-25T05:54:25;99421.44;;;4.13;100.00
13348;BME280;6743;49.934;9.138;2023-02-25T05:56:51;99411.09;;;4.12;100.00
13348;BME280;6743;49.934;9.138;2023-02-25T05:59:18;99413.84;;;4.10;100.00
13348;BME280;6743;49.934;9.138;2023-02-25T06:01:44;99409.28;;;4.12;100.00
13348;BME280;6743;49.934;9.138;2023-02-25T06:04:10;99402.28;;;4.03;100.00
13348;BME280;6743;49.934;9.138;2023-02-25T06:06:36;99422.56;;;4.11;100.00
13348;BME280;6743;49.934;9.138;2023-02-25T06:09:03;99419.09;;;4.10;100.00
13348;BME280;6743;49.934;9.138;2023-02-25T06:11:30;99411.09;;;4.02;100.00
13348;BME280;6743;49.934;9.138;2023-02-25T06:13:58;99431.53;;;4.08;100.00
13348;BME280;6743;49.934;9.138;2023-02-25T06:16:25;99435.16;;;4.07;100.00
13348;BME280;6743;49.934;9.138;2023-02-25T06:18:56;99429.91;;;4.07;100.00
13348;BME280;6743;49.934;9.138;2023-02-25T06:21:23;99434.16;;;4.08;100.00
13348;BME280;6743;49.934;9.138;2023-02-25T06:23:51;99421.78;;;4.01;100.00
13348;BME280;6743;49.934;9.138;2023-02-25T06:26:17;99441.22;;;4.08;100.00
13348;BME280;6743;49.934;9.138;2023-02-25T06:28:43;99440.41;;;4.07;100.00
13348;BME280;6743;49.934;9.138;2023-02-25T06:31:12;99446.75;;;4.05;100.00
13348;BME280;6743;49.934;9.138;2023-02-25T06:33:39;99450.63;;;4.01;100.00
13348;BME280;6743;49.934;9.138;2023-02-25T06:36:06;99436.56;;;3.92;100.00
13348;BME280;6743;49.934;9.138;2023-02-25T06:38:33;99454.88;;;4.02;100.00
13348;BME280;6743;49.934;9.138;2023-02-25T06:41:04;99431.47;;;3.90;100.00
13348;BME280;6743;49.934;9.138;2023-02-25T06:43:30;99456.56;;;4.03;100.00
13348;BME280;6743;49.934;9.138;2023-02-25T06:45:56;99452.44;;;4.00;100.00
13348;BME280;6743;49.934;9.138;2023-02-25T06:48:22;99447.19;;;4.00;100.00
13348;BME280;6743;49.934;9.138;2023-02-25T06:50:48;99432.81;;;3.94;100.00
13348;BME280;6743;49.934;9.138;2023-02-25T06:53:14;99447.84;;;4.02;100.00
13348;BME280;6743;49.934;9.138;2023-02-25T06:55:40;99443.56;;;4.01;100.00
13348;BME280;6743;49.934;9.138;2023-02-25T06:58:07;99454.75;;;4.03;100.00
13348;BME280;6743;49.934;9.138;2023-02-25T07:00:36;99457.25;;;4.05;100.00
13348;BME280;6743;49.934;9.138;2023-02-25T07:03:09;99467.87;;;4.03;100.00
13348;BME280;6743;49.934;9.138;2023-02-25T07:05:37;99456.84;;;4.00;100.00
13348;BME280;6743;49.934;9.138;2023-02-25T07:08:11;99458.91;;;4.06;100.00
13348;BME280;6743;49.934;9.138;2023-02-25T07:10:38;99460.31;;;4.00;100.00
13348;BME280;6743;49.934;9.138;2023-02-25T07:13:06;99471.06;;;4.07;100.00
13348;BME280;6743;49.934;9.138;2023-02-25T07:15:32;99473.50;;;4.08;100.00
13348;BME280;6743;49.934;9.138;2023-02-25T07:17:58;99475.75;;;4.03;100.00
13348;BME280;6743;49.934;9.138;2023-02-25T07:20:24;99482.78;;;4.03;100.00
13348;BME280;6743;49.934;9.138;2023-02-25T07:22:50;99479.22;;;4.04;100.00
13348;BME280;6743;49.934;9.138;2023-02-25T07:25:16;99475.75;;;4.03;100.00
13348;BME280;6743;49.934;9.138;2023-02-25T07:27:43;99486.38;;;4.02;100.00
13348;BME280;6743;49.934;9.138;2023-02-25T07:30:10;99486.94;;;4.05;100.00
13348;BME280;6743;49.934;9.138;2023-02-25T07:32:38;99472.44;;;4.01;100.00
13348;BME280;6743;49.934;9.138;2023-02-25T07:35:05;99465.69;;;3.99;100.00
13348;BME280;6743;49.934;9.138;2023-02-25T07:37:31;99476.72;;;4.02;100.00
13348;BME280;6743;49.934;9.138;2023-02-25T07:39:57;99491.88;;;4.08;100.00
13348;BME280;6743;49.934;9.138;2023-02-25T07:42:24;99485.53;;;4.11;100.00
13348;BME280;6743;49.934;9.138;2023-02-25T07:44:50;99485.84;;;4.08;100.00
13348;BME280;6743;49.934;9.138;2023-02-25T07:47:17;99497.56;;;4.13;100.00
13348;BME280;6743;49.934;9.138;2023-02-25T07:49:48;99486.12;;;4.05;100.00
13348;BME280;6743;49.934;9.138;2023-02-25T07:52:16;99493.03;;;4.06;100.00
13348;BME280;6743;49.934;9.138;2023-02-25T07:54:43;99499.63;;;4.10;100.00
13348;BME280;6743;49.934;9.138;2023-02-25T07:57:09;99492.59;;;4.10;100.00
13348;BME280;6743;49.934;9.138;2023-02-25T07:59:35;99496.72;;;4.13;100.00
13348;BME280;6743;49.934;9.138;2023-02-25T08:02:03;99500.84;;;4.15;100.00
13348;BME280;6743;49.934;9.138;2023-02-25T08:04:29;99483.22;;;4.08;100.00
13348;BME280;6743;49.934;9.138;2023-02-25T08:06:56;99502.50;;;4.16;100.00
13348;BME280;6743;49.934;9.138;2023-02-25T08:09:22;99509.28;;;4.19;100.00
13348;BME280;6743;49.934;9.138;2023-02-25T08:11:49;99511.91;;;4.19;100.00
13348;BME280;6743;49.934;9.138;2023-02-25T08:14:16;99501.16;;;4.12;100.00
13348;BME280;6743;49.934;9.138;2023-02-25T08:16:42;99506.94;;;4.16;100.00
13348;BME280;6743;49.934;9.138;2023-02-25T08:19:08;99512.47;;;4.13;100.00
13348;BME280;6743;49.934;9.138;2023-02-25T08:21:34;99512.34;;;4.14;100.00
13348;BME280;6743;49.934;9.138;2023-02-25T08:24:02;99504.31;;;4.16;100.00
13348;BME280;6743;49.934;9.138;2023-02-25T08:26:28;99507.09;;;4.14;100.00
13348;BME280;6743;49.934;9.138;2023-02-25T08:28:55;99503.06;;;4.20;100.00
13348;BME280;6743;49.934;9.138;2023-02-25T08:31:21;99508.31;;;4.20;100.00
13348;BME280;6743;49.934;9.138;2023-02-25T08:33:49;99487.34;;;4.10;100.00
13348;BME280;6743;49.934;9.138;2023-02-25T08:36:19;99513.13;;;4.24;100.00
13348;BME280;6743;49.934;9.138;2023-02-25T08:38:45;99507.75;;;4.26;100.00
13348;BME280;6743;49.934;9.138;2023-02-25T08:41:12;99510.25;;;4.27;100.00
13348;BME280;6743;49.934;9.138;2023-02-25T08:43:40;99506.47;;;4.30;100.00
13348;BME280;6743;49.934;9.138;2023-02-25T08:46:06;99512.44;;;4.32;100.00
13348;BME280;6743;49.934;9.138;2023-02-25T08:48:33;99494.88;;;4.23;100.00
13348;BME280;6743;49.934;9.138;2023-02-25T08:51:01;99503.72;;;4.31;100.00
13348;BME280;6743;49.934;9.138;2023-02-25T08:53:27;99506.72;;;4.36;100.00
13348;BME280;6743;49.934;9.138;2023-02-25T08:55:53;99505.75;;;4.37;100.00
13348;BME280;6743;49.934;9.138;2023-02-25T08:58:20;99510.06;;;4.39;100.00
13348;BME280;6743;49.934;9.138;2023-02-25T09:00:46;99513.63;;;4.37;100.00
13348;BME280;6743;49.934;9.138;2023-02-25T09:03:14;99512.69;;;4.39;100.00
13348;BME280;6743;49.934;9.138;2023-02-25T09:05:40;99503.28;;;4.36;100.00
13348;BME280;6743;49.934;9.138;2023-02-25T09:08:06;99511.72;;;4.40;100.00
13348;BME280;6743;49.934;9.138;2023-02-25T09:10:32;99516.00;;;4.41;100.00
13348;BME280;6743;49.934;9.138;2023-02-25T09:13:00;99517.50;;;4.43;100.00
13348;BME280;6743;49.934;9.138;2023-02-25T09:15:26;99509.78;;;4.42;100.00
13348;BME280;6743;49.934;9.138;2023-02-25T09:17:52;99513.91;;;4.44;100.00
13348;BME280;6743;49.934;9.138;2023-02-25T09:20:18;99491.97;;;4.35;100.00
13348;BME280;6743;49.934;9.138;2023-02-25T09:22:44;99512.22;;;4.53;100.00
13348;BME280;6743;49.934;9.138;2023-02-25T09:25:11;99514.56;;;4.56;100.00
13348;BME280;6743;49.934;9.138;2023-02-25T09:27:38;99518.53;;;4.60;100.00
13348;BME280;6743;49.934;9.138;2023-02-25T09:30:05;99520.06;;;4.62;100.00
13348;BME280;6743;49.934;9.138;2023-02-25T09:32:31;99518.78;;;4.66;100.00
13348;BME280;6743;49.934;9.138;2023-02-25T09:34:57;99520.97;;;4.71;100.00
13348;BME280;6743;49.934;9.138;2023-02-25T09:37:30;99517.09;;;4.75;100.00
13348;BME280;6743;49.934;9.138;2023-02-25T09:39:56;99515.16;;;4.77;100.00
13348;BME280;6743;49.934;9.138;2023-02-25T09:42:28;99518.59;;;4.78;100.00
13348;BME280;6743;49.934;9.138;2023-02-25T09:45:00;99525.66;;;4.77;100.00
13348;BME280;6743;49.934;9.138;2023-02-25T09:47:32;99517.78;;;4.77;100.00
13348;BME280;6743;49.934;9.138;2023-02-25T09:50:04;99517.38;;;4.72;100.00
13348;BME280;6743;49.934;9.138;2023-02-25T09:52:33;99513.78;;;4.73;100.00
13348;BME280;6743;49.934;9.138;2023-02-25T09:55:05;99518.22;;;4.72;100.00
13348;BME280;6743;49.934;9.138;2023-02-25T09:57:36;99515.56;;;4.72;100.00
13348;BME280;6743;49.934;9.138;2023-02-25T10:00:05;99511.97;;;4.73;100.00
13348;BME280;6743;49.934;9.138;2023-02-25T10:02:42;99511.53;;;4.78;100.00
13348;BME280;6743;49.934;9.138;2023-02-25T10:05:18;99510.28;;;4.82;100.00
13348;BME280;6743;49.934;9.138;2023-02-25T10:07:56;99502.78;;;4.87;100.00
13348;BME280;6743;49.934;9.138;2023-02-25T10:10:34;99498.87;;;4.91;100.00
13348;BME280;6743;49.934;9.138;2023-02-25T10:13:12;99500.25;;;4.95;100.00
13348;BME280;6743;49.934;9.138;2023-02-25T10:15:50;99506.72;;;5.01;100.00
13348;BME280;6743;49.934;9.138;2023-02-25T10:18:28;99493.13;;;5.05;100.00
13348;BME280;6743;49.934;9.138;2023-02-25T10:21:06;99494.03;;;5.14;100.00
13348;BME280;6743;49.934;9.138;2023-02-25T10:23:42;99489.84;;;5.21;100.00
13348;BME280;6743;49.934;9.138;2023-02-25T10:26:16;99491.59;;;5.30;100.00
13348;BME280;6743;49.934;9.138;2023-02-25T10:28:47;99498.41;;;5.41;100.00
13348;BME280;6743;49.934;9.138;2023-02-25T10:31:16;99499.03;;;5.52;100.00
13348;BME280;6743;49.934;9.138;2023-02-25T10:33:45;99497.87;;;5.55;100.00
13348;BME280;6743;49.934;9.138;2023-02-25T10:36:14;99507.78;;;5.61;100.00
13348;BME280;6743;49.934;9.138;2023-02-25T10:38:43;99499.63;;;5.64;100.00
13348;BME280;6743;49.934;9.138;2023-02-25T10:41:10;99485.56;;;5.55;100.00
13348;BME280;6743;49.934;9.138;2023-02-25T10:43:37;99507.38;;;5.66;100.00
13348;BME280;6743;49.934;9.138;2023-02-25T10:46:06;99491.09;;;5.70;100.00
13348;BME280;6743;49.934;9.138;2023-02-25T10:48:35;99504.63;;;5.75;100.00
13348;BME280;6743;49.934;9.138;2023-02-25T10:51:06;99497.78;;;5.82;100.00
13348;BME280;6743;49.934;9.138;2023-02-25T10:53:37;99506.34;;;5.84;100.00
13348;BME280;6743;49.934;9.138;2023-02-25T10:56:04;99509.97;;;5.83;100.00
13348;BME280;6743;49.934;9.138;2023-02-25T10:58:34;99500.94;;;5.86;100.00
13348;BME280;6743;49.934;9.138;2023-02-25T11:01:05;99504.41;;;5.86;100.00
13348;BME280;6743;49.934;9.138;2023-02-25T11:03:34;99502.31;;;5.90;100.00
13348;BME280;6743;49.934;9.138;2023-02-25T11:06:12;99494.78;;;5.95;100.00
13348;BME280;6743;49.934;9.138;2023-02-25T11:08:38;99507.50;;;6.00;100.00
13348;BME280;6743;49.934;9.138;2023-02-25T11:11:13;99491.34;;;5.95;100.00
13348;BME280;6743;49.934;9.138;2023-02-25T11:13:39;99497.59;;;5.93;100.00
13348;BME280;6743;49.934;9.138;2023-02-25T11:16:09;99490.94;;;5.89;100.00
13348;BME280;6743;49.934;9.138;2023-02-25T11:18:37;99485.97;;;5.86;100.00
13348;BME280;6743;49.934;9.138;2023-02-25T11:21:05;99499.13;;;5.86;100.00
13348;BME280;6743;49.934;9.138;2023-02-25T11:23:38;99500.84;;;5.87;100.00
13348;BME280;6743;49.934;9.138;2023-02-25T11:26:13;99498.03;;;5.89;100.00
13348;BME280;6743;49.934;9.138;2023-02-25T11:28:43;99476.88;;;5.81;100.00
13348;BME280;6743;49.934;9.138;2023-02-25T11:31:15;99485.28;;;5.84;100.00
13348;BME280;6743;49.934;9.138;2023-02-25T11:33:44;99501.62;;;5.88;100.00
13348;BME280;6743;49.934;9.138;2023-02-25T11:36:12;99497.34;;;5.87;100.00
13348;BME280;6743;49.934;9.138;2023-02-25T11:39:05;99494.84;;;5.85;100.00
13348;BME280;6743;49.934;9.138;2023-02-25T11:41:31;99487.56;;;5.79;100.00
13348;BME280;6743;49.934;9.138;2023-02-25T11:44:11;99494.03;;;5.85;100.00
13348;BME280;6743;49.934;9.138;2023-02-25T11:46:43;99491.37;;;5.85;100.00
13348;BME280;6743;49.934;9.138;2023-02-25T11:49:15;99497.47;;;5.85;100.00
13348;BME280;6743;49.934;9.138;2023-02-25T11:51:50;99492.94;;;5.87;100.00
13348;BME280;6743;49.934;9.138;2023-02-25T11:54:23;99490.13;;;5.89;100.00
13348;BME280;6743;49.934;9.138;2023-02-25T11:56:54;99488.47;;;5.88;100.00
13348;BME280;6743;49.934;9.138;2023-02-25T11:59:35;99483.88;;;5.90;100.00
13348;BME280;6743;49.934;9.138;2023-02-25T12:02:18;99499.69;;;5.90;100.00
13348;BME280;6743;49.934;9.138;2023-02-25T12:05:02;99494.84;;;5.85;100.00
13348;BME280;6743;49.934;9.138;2023-02-25T12:14:01;99533.09;;;4.54;100.00
13348;BME280;6743;49.934;9.138;2023-02-25T12:19:55;99532.09;;;4.18;100.00
13348;BME280;6743;49.934;9.138;2023-02-25T12:25:35;99531.84;;;3.92;100.00
13348;BME280;6743;49.934;9.138;2023-02-25T12:28:25;99532.69;;;3.93;100.00
13348;BME280;6743;49.934;9.138;2023-02-25T12:31:19;99528.66;;;3.99;100.00
13348;BME280;6743;49.934;9.138;2023-02-25T12:37:03;99516.25;;;3.91;100.00
13348;BME280;6743;49.934;9.138;2023-02-25T12:39:53;99518.59;;;3.94;100.00
13348;BME280;6743;49.934;9.138;2023-02-25T12:42:36;99523.16;;;3.92;100.00
13348;BME280;6743;49.934;9.138;2023-02-25T12:45:42;99528.25;;;3.74;100.00
13348;BME280;6743;49.934;9.138;2023-02-25T12:48:39;99514.75;;;3.50;100.00
13348;BME280;6743;49.934;9.138;2023-02-25T12:51:46;99511.84;;;3.34;100.00
13348;BME280;6743;49.934;9.138;2023-02-25T12:54:30;99524.84;;;3.45;100.00
13348;BME280;6743;49.934;9.138;2023-02-25T12:57:42;99527.87;;;3.50;100.00
13348;BME280;6743;49.934;9.138;2023-02-25T13:00:31;99525.53;;;3.56;100.00
13348;BME280;6743;49.934;9.138;2023-02-25T13:03:23;99531.84;;;3.54;100.00
13348;BME280;6743;49.934;9.138;2023-02-25T13:06:04;99537.38;;;3.41;100.00
13348;BME280;6743;49.934;9.138;2023-02-25T13:08:49;99534.91;;;3.49;100.00
13348;BME280;6743;49.934;9.138;2023-02-25T13:11:26;99531.03;;;3.63;100.00
13348;BME280;6743;49.934;9.138;2023-02-25T13:14:08;99520.97;;;3.78;100.00
13348;BME280;6743;49.934;9.138;2023-02-25T13:16:49;99520.81;;;3.89;100.00
13348;BME280;6743;49.934;9.138;2023-02-25T19:47:17;99999.13;;;1.95;100.00
13348;BME280;6743;49.934;9.138;2023-02-25T19:49:43;100017.91;;;1.89;100.00
13348;BME280;6743;49.934;9.138;2023-02-25T19:52:09;100017.31;;;1.85;100.00
13348;BME280;6743;49.934;9.138;2023-02-25T19:54:35;100019.94;;;1.85;100.00
13348;BME280;6743;49.934;9.138;2023-02-25T19:57:02;100028.47;;;1.87;100.00
13348;BME280;6743;49.934;9.138;2023-02-25T19:59:28;100034.16;;;1.81;100.00
13348;BME280;6743;49.934;9.138;2023-02-25T20:01:54;100031.66;;;1.80;100.00
13348;BME280;6743;49.934;9.138;2023-02-25T20:04:21;100037.50;;;1.83;100.00
13348;BME280;6743;49.934;9.138;2023-02-25T20:06:47;100038.91;;;1.76;100.00
13348;BME280;6743;49.934;9.138;2023-02-25T20:09:13;100042.56;;;1.74;100.00
13348;BME280;6743;49.934;9.138;2023-02-25T20:11:40;100045.09;;;1.75;100.00